createdAt,value
2022-12-27T08:35:52.755Z,81.30
2022-12-27T08:38:20.340Z,97.45
2022-12-27T08:40:47.235Z,87.20
2022-12-27T08:43:14.644Z,90.50
2022-12-27T08:45:41.980Z,86.30
2022-12-27T08:48:09.475Z,83.95
2022-12-27T08:50:36.393Z,99.03
2022-12-27T08:53:04.796Z,91.35
2022-12-27T08:55:32.635Z,89.93
2022-12-27T08:58:13.798Z,85.55
2022-12-27T09:00:42.792Z,82.43
2022-12-27T09:03:10.631Z,77.45
2022-12-27T09:05:41.684Z,76.93
2022-12-27T09:08:09.881Z,74.07
2022-12-27T09:10:37.089Z,73.85
2022-12-27T09:13:04.303Z,84.55
2022-12-27T09:15:31.383Z,69.53
2022-12-27T09:17:58.366Z,76.97
2022-12-27T09:20:25.196Z,79.78
2022-12-27T09:22:52.181Z,71.80
2022-12-27T09:25:19.309Z,74.30
2022-12-27T09:27:46.267Z,75.53
2022-12-27T09:30:13.412Z,75.68
2022-12-27T09:32:40.249Z,81.93
2022-12-27T09:35:08.549Z,73.00
2022-12-27T09:37:35.424Z,73.82
2022-12-27T09:40:02.274Z,76.50
2022-12-27T09:43:08.035Z,78.80
2022-12-27T09:45:51.493Z,77.57
2022-12-27T09:48:33.462Z,77.85
2022-12-27T09:51:19.755Z,86.93
2022-12-27T09:54:04.971Z,86.47
2022-12-27T09:56:54.501Z,84.05
2022-12-27T09:59:31.877Z,88.05
2022-12-27T10:01:59.458Z,82.60
2022-12-27T10:05:10.042Z,82.88
2022-12-27T10:08:00.462Z,77.70
2022-12-27T10:10:33.127Z,99.20
2022-12-27T10:16:02.705Z,90.18
2022-12-27T10:18:59.605Z,97.10
2022-12-27T10:21:29.493Z,102.53
2022-12-27T10:24:16.052Z,87.60
2022-12-27T10:26:43.306Z,86.35
2022-12-27T10:29:20.649Z,84.50
2022-12-27T10:31:47.734Z,82.60
2022-12-27T10:34:16.881Z,94.30
2022-12-27T10:36:45.422Z,83.32
2022-12-27T10:39:34.921Z,89.90
2022-12-27T10:42:41.879Z,80.63
2022-12-27T10:45:33.441Z,97.13
2022-12-27T10:48:20.870Z,94.55
2022-12-27T10:50:50.519Z,81.82
2022-12-27T10:53:36.662Z,78.40
2022-12-27T10:56:28.825Z,74.90
2022-12-27T10:59:11.546Z,73.77
2022-12-27T11:01:38.596Z,82.00
2022-12-27T11:04:21.534Z,72.10
2022-12-27T11:07:13.022Z,79.57
2022-12-27T11:09:50.180Z,77.22
2022-12-27T11:12:30.734Z,86.00
2022-12-27T11:15:19.600Z,65.43
2022-12-27T11:18:11.071Z,79.13
2022-12-27T11:20:40.904Z,64.35
2022-12-27T11:23:10.672Z,74.80
2022-12-27T11:25:46.620Z,69.15
2022-12-27T11:28:38.444Z,78.53
2022-12-27T11:31:15.137Z,76.63
2022-12-27T11:33:50.431Z,74.85
2022-12-27T11:36:40.685Z,88.95
2022-12-27T11:39:14.035Z,80.78
2022-12-27T11:41:52.077Z,71.75
2022-12-27T11:44:33.460Z,79.00
2022-12-27T11:47:11.289Z,82.10
2022-12-27T11:49:55.849Z,90.35
2022-12-27T11:53:04.484Z,90.22
2022-12-27T11:56:00.020Z,73.40
2022-12-27T11:59:05.050Z,87.68
2022-12-27T12:02:05.111Z,97.32
2022-12-27T12:04:50.555Z,93.82
2022-12-27T12:07:32.087Z,80.07
2022-12-27T12:10:20.411Z,73.82
2022-12-27T12:12:58.891Z,84.55
2022-12-27T12:16:11.592Z,74.22
2022-12-27T12:19:02.328Z,83.70
2022-12-27T12:21:48.066Z,92.70
2022-12-27T12:24:40.809Z,83.82
2022-12-27T12:27:29.365Z,87.35
2022-12-27T12:30:14.845Z,89.07
2022-12-27T12:33:20.480Z,92.50
2022-12-27T12:36:16.401Z,97.38
2022-12-27T12:38:53.536Z,89.22
2022-12-27T12:41:30.211Z,101.85
2022-12-27T12:44:41.273Z,83.10
2022-12-27T12:47:11.426Z,96.03
2022-12-27T12:50:11.356Z,89.32
2022-12-27T12:52:58.997Z,84.53
2022-12-27T12:55:38.177Z,117.78
2022-12-27T12:58:43.491Z,83.53
2022-12-27T13:01:35.286Z,85.68
2022-12-27T13:04:18.827Z,76.65
2022-12-27T13:06:57.369Z,101.88
2022-12-27T13:09:33.963Z,84.55
2022-12-27T13:12:39.319Z,82.45
2022-12-27T13:15:24.709Z,80.63
2022-12-27T13:18:02.632Z,90.40
2022-12-27T13:20:53.461Z,79.63
2022-12-27T13:23:48.433Z,81.97
2022-12-27T13:26:25.571Z,85.47
2022-12-27T13:29:06.728Z,119.55
2022-12-27T13:31:36.367Z,97.70
2022-12-27T13:34:21.308Z,96.18
2022-12-27T13:37:17.427Z,82.85
2022-12-27T13:40:03.084Z,87.70
2022-12-27T13:43:05.829Z,93.90
2022-12-27T13:45:46.563Z,87.22
2022-12-27T13:48:39.747Z,95.63
2022-12-27T13:51:18.280Z,88.43
2022-12-27T13:53:51.695Z,101.00
2022-12-27T13:59:34.965Z,93.68
2022-12-27T14:02:26.612Z,100.88
2022-12-27T14:05:02.510Z,104.55
2022-12-27T14:08:06.847Z,94.18
2022-12-27T14:11:00.769Z,84.97
2022-12-27T14:13:41.562Z,108.40
2022-12-27T14:16:32.931Z,90.25
2022-12-27T14:19:21.435Z,97.97
2022-12-27T14:22:17.230Z,104.78
2022-12-27T14:24:52.972Z,104.18
2022-12-27T14:27:56.657Z,96.25
2022-12-27T14:30:56.183Z,90.97
2022-12-27T14:33:43.892Z,88.85
2022-12-27T14:36:52.512Z,91.85
2022-12-27T14:39:40.745Z,92.50
2022-12-27T14:42:36.537Z,101.70
2022-12-27T14:45:22.159Z,93.65
2022-12-27T14:48:16.297Z,89.78
2022-12-27T14:51:49.974Z,85.68
2022-12-27T14:54:16.078Z,101.20
2022-12-27T14:56:54.613Z,95.07
2022-12-27T14:59:28.914Z,99.43
2022-12-27T15:02:28.127Z,99.70
2022-12-27T15:05:25.954Z,118.28
2022-12-27T15:08:19.680Z,94.32
2022-12-27T15:11:04.594Z,88.20
2022-12-27T15:14:02.956Z,93.25
2022-12-27T15:17:04.503Z,99.95
2022-12-27T15:19:40.264Z,116.38
2022-12-27T15:22:31.843Z,94.53
2022-12-27T15:25:27.670Z,99.90
2022-12-27T15:28:12.184Z,98.30
2022-12-27T15:31:07.709Z,97.07
2022-12-27T15:33:39.977Z,87.78
2022-12-27T15:36:17.551Z,87.40
2022-12-27T15:38:54.599Z,84.70
2022-12-27T15:41:35.195Z,89.05
2022-12-27T15:44:07.554Z,90.53
2022-12-27T15:46:56.030Z,100.15
2022-12-27T15:49:50.683Z,95.20
2022-12-27T15:52:23.467Z,89.13
2022-12-27T15:55:19.133Z,85.20
2022-12-27T15:57:51.961Z,93.93
2022-12-27T16:00:33.572Z,97.40
2022-12-27T16:03:37.597Z,108.35
2022-12-27T16:08:35.260Z,101.88
2022-12-27T16:11:12.763Z,91.72
2022-12-27T16:13:42.698Z,90.97
2022-12-27T16:16:32.591Z,91.97
2022-12-27T16:18:59.514Z,83.82
2022-12-27T16:21:37.792Z,96.85
2022-12-27T16:24:11.437Z,93.75
2022-12-27T16:26:51.806Z,86.18
2022-12-27T16:29:20.523Z,82.45
2022-12-27T16:31:51.697Z,83.00
2022-12-27T16:34:25.002Z,88.93
2022-12-27T16:36:54.000Z,100.65
2022-12-27T16:39:49.841Z,90.95
2022-12-27T16:42:49.506Z,89.80
2022-12-27T16:45:34.748Z,89.40
2022-12-27T16:48:39.118Z,100.43
2022-12-27T16:51:27.486Z,95.32
2022-12-27T16:53:54.354Z,94.25
2022-12-27T16:56:27.796Z,98.80
2022-12-27T16:58:54.647Z,88.40
2022-12-27T17:01:50.469Z,92.78
2022-12-27T17:04:49.476Z,97.95
2022-12-27T17:07:41.406Z,92.97
2022-12-27T17:10:34.918Z,97.45
2022-12-27T17:13:15.425Z,113.93
2022-12-27T17:16:07.955Z,107.72
2022-12-27T17:18:37.311Z,106.13
2022-12-27T17:21:14.226Z,98.30
2022-12-27T17:23:43.581Z,100.55
2022-12-27T17:26:28.972Z,101.85
2022-12-27T17:29:03.147Z,95.55
2022-12-27T17:31:45.533Z,91.60
2022-12-27T17:34:28.254Z,93.78
2022-12-27T17:40:00.219Z,99.18
2022-12-27T17:42:55.769Z,90.30
2022-12-27T17:45:38.239Z,104.57
2022-12-27T17:48:29.828Z,94.68
2022-12-27T17:51:05.260Z,93.05
2022-12-27T17:53:50.570Z,87.55
2022-12-27T17:56:39.758Z,87.10
2022-12-27T17:59:10.840Z,75.93
2022-12-27T18:01:48.581Z,88.75
2022-12-27T18:04:40.550Z,93.82
2022-12-27T18:07:12.846Z,87.15
2022-12-27T18:09:49.979Z,83.03
2022-12-27T18:12:25.568Z,90.40
2022-12-27T18:15:14.309Z,86.65
2022-12-27T18:17:51.529Z,86.18
2022-12-27T18:20:27.743Z,87.20
2022-12-27T18:23:00.661Z,83.57
2022-12-27T18:25:33.769Z,76.47
2022-12-27T18:28:06.645Z,74.93
2022-12-27T18:30:47.117Z,65.18
2022-12-27T18:33:16.238Z,86.30
2022-12-27T18:35:49.393Z,90.28
2022-12-27T18:38:47.781Z,81.13
2022-12-27T18:41:21.397Z,97.68
2022-12-27T18:43:59.674Z,106.63
2022-12-27T18:46:31.232Z,71.75
2022-12-27T18:48:58.772Z,90.90
2022-12-27T18:51:38.027Z,85.53
2022-12-27T18:54:43.597Z,85.88
2022-12-27T18:57:35.119Z,96.65
2022-12-27T19:00:25.751Z,102.30
2022-12-27T19:02:54.405Z,93.03
2022-12-27T19:05:21.165Z,82.43
2022-12-27T19:08:02.076Z,96.15
2022-12-27T19:10:30.739Z,78.15
2022-12-27T19:12:57.986Z,85.40
2022-12-27T19:15:36.059Z,92.22
2022-12-27T19:18:06.677Z,80.05
2022-12-27T19:20:35.561Z,90.57
2022-12-27T19:23:05.905Z,90.28
2022-12-27T19:25:33.887Z,86.35
2022-12-27T19:28:09.287Z,75.85
2022-12-27T19:30:51.291Z,88.70
2022-12-27T19:33:28.460Z,87.87
2022-12-27T19:35:56.202Z,95.38
2022-12-27T19:38:31.765Z,75.47
2022-12-27T19:41:03.838Z,89.32
2022-12-27T19:43:37.907Z,80.68
2022-12-27T19:46:04.988Z,91.65
2022-12-27T19:48:31.788Z,86.25
2022-12-27T19:50:59.043Z,85.35
2022-12-27T19:53:43.071Z,84.18
2022-12-27T19:56:11.255Z,97.65
2022-12-27T19:58:38.239Z,80.28
2022-12-27T20:01:05.311Z,81.88
2022-12-27T20:03:32.187Z,76.97
2022-12-27T20:06:12.568Z,82.78
2022-12-27T20:08:48.355Z,163.38
2022-12-27T20:11:18.525Z,127.50
2022-12-27T20:13:45.782Z,109.30
2022-12-27T20:16:15.407Z,106.50
2022-12-27T20:18:43.206Z,95.00
2022-12-27T20:21:17.125Z,96.05
2022-12-27T20:23:44.565Z,88.78
2022-12-27T20:26:13.219Z,88.13
2022-12-27T20:28:43.072Z,79.85
2022-12-27T20:31:14.497Z,96.05
2022-12-27T20:33:41.949Z,86.00
2022-12-27T20:36:10.468Z,80.53
2022-12-27T20:38:43.963Z,69.47
2022-12-27T20:41:16.803Z,71.32
2022-12-27T20:43:44.124Z,73.35
2022-12-27T20:46:16.595Z,68.78
2022-12-27T20:48:45.685Z,91.53
2022-12-27T20:51:20.939Z,76.25
2022-12-27T20:53:49.254Z,82.18
2022-12-27T20:56:16.954Z,67.50
2022-12-27T20:58:43.901Z,66.63
2022-12-27T21:01:14.039Z,70.85
2022-12-27T21:03:41.298Z,68.88
2022-12-27T21:06:09.008Z,58.60
2022-12-27T21:08:44.579Z,64.72
2022-12-27T21:11:19.961Z,73.90
2022-12-27T21:13:48.091Z,70.78
2022-12-27T21:16:23.250Z,80.13
2022-12-27T21:18:52.529Z,69.38
2022-12-27T21:21:23.765Z,62.65
2022-12-27T21:23:53.725Z,60.25
2022-12-27T21:26:23.645Z,61.58
2022-12-27T21:28:51.220Z,61.83
2022-12-27T21:31:21.605Z,57.58
2022-12-27T21:33:48.927Z,64.10
2022-12-27T21:36:21.384Z,59.70
2022-12-27T21:38:48.959Z,63.53
2022-12-27T21:41:27.915Z,57.63
2022-12-27T21:43:54.897Z,65.85
2022-12-27T21:46:24.499Z,63.78
2022-12-27T21:48:57.179Z,61.03
2022-12-27T21:53:51.436Z,58.40
2022-12-27T21:56:18.813Z,61.80
2022-12-27T21:58:46.386Z,75.03
2022-12-27T22:01:25.023Z,72.03
2022-12-27T22:03:53.782Z,60.85
2022-12-27T22:06:30.328Z,56.45
2022-12-27T22:08:59.931Z,60.30
2022-12-27T22:11:28.093Z,63.65
2022-12-27T22:13:55.322Z,73.40
2022-12-27T22:16:30.969Z,67.20
2022-12-27T22:18:58.120Z,60.78
2022-12-27T22:21:30.891Z,56.83
2022-12-27T22:23:59.744Z,49.45
2022-12-27T22:26:32.580Z,54.60
